Time;durP1;ratioP1;P1;durP2;ratioP2;P2;SDS_P1;SDS_P2;PMS_P1;PMS_P2;Temp;Humidity;BMP_temperature;BMP_pressure;BME280_temperature;BME280_humidity;BME280_pressure;Samples;Min_cycle;Max_cycle;Signal;HPM_P1;HPM_P2
2023/10/21 00:00:08;;;;;;;6.13;3.30;;;;;;;13.36;65.68;97918.09;694298;28;1312;-93
2023/10/21 00:00:35;;;;;;;5.38;3.20;;;;;;;13.41;65.28;97930.16;693357;28;1235;-93
2023/10/21 00:00:56;;;;;;;4.13;2.95;;;;;;;13.45;65.39;97937.94;693018;28;1115;-93
2023/10/21 00:01:17;;;;;;;4.03;3.25;;;;;;;13.39;65.54;97928.50;692650;28;1457;-93
2023/10/21 00:01:38;;;;;;;4.88;3.30;;;;;;;13.47;65.51;97936.13;692857;28;1445;-93
2023/10/21 00:01:58;;;;;;;5.03;3.17;;;;;;;13.38;65.58;97922.41;693436;28;1421;-93
2023/10/21 00:02:20;;;;;;;5.35;3.17;;;;;;;13.45;65.41;97932.72;697187;28;1468;-93
2023/10/21 00:02:41;;;;;;;4.85;3.33;;;;;;;13.48;65.30;97937.84;698389;28;1241;-92
2023/10/21 00:03:02;;;;;;;6.40;3.40;;;;;;;13.44;65.42;97921.34;691151;28;1196;-92
2023/10/21 00:03:23;;;;;;;6.07;3.28;;;;;;;13.47;65.22;97921.28;698068;28;1413;-93
2023/10/21 00:03:44;;;;;;;6.35;3.10;;;;;;;13.52;65.11;97929.00;693386;28;1112;-93
2023/10/21 00:04:08;;;;;;;4.78;2.97;;;;;;;13.47;65.21;97918.66;688261;28;1475;-92
2023/10/21 00:04:29;;;;;;;4.82;2.97;;;;;;;13.52;65.09;97929.00;693135;28;1479;-92
2023/10/21 00:04:50;;;;;;;5.18;3.05;;;;;;;13.47;65.08;97920.41;696073;28;1228;-92
2023/10/21 00:05:11;;;;;;;5.82;3.65;;;;;;;13.47;64.99;97918.66;695875;28;1726;-92
2023/10/21 00:05:32;;;;;;;5.90;3.90;;;;;;;13.53;65.23;97925.47;698088;28;1571;-93
2023/10/21 00:05:53;;;;;;;4.80;3.75;;;;;;;13.56;64.94;97931.47;696173;28;1282;-93
2023/10/21 00:06:14;;;;;;;4.10;3.25;;;;;;;13.57;64.92;97934.94;692184;28;1577;-93
2023/10/21 00:06:38;;;;;;;3.50;3.00;;;;;;;13.53;65.07;97922.84;687966;28;1406;-93
2023/10/21 00:06:59;;;;;;;10.90;3.38;;;;;;;13.51;64.78;97919.44;692610;28;1234;-93
2023/10/21 00:07:20;;;;;;;11.00;3.30;;;;;;;13.49;65.13;97918.59;695838;28;1471;-92
2023/10/21 00:07:42;;;;;;;5.00;3.75;;;;;;;13.46;65.16;97918.69;690630;28;1417;-93
2023/10/21 00:08:03;;;;;;;4.80;3.70;;;;;;;13.58;65.22;97947.13;696031;28;1271;-93
2023/10/21 00:08:24;;;;;;;6.13;3.60;;;;;;;13.45;65.29;97907.34;695603;28;1325;-93
2023/10/21 00:08:45;;;;;;;7.53;3.60;;;;;;;13.44;65.10;97910.88;690533;28;1194;-92
2023/10/21 00:09:06;;;;;;;8.30;3.60;;;;;;;13.49;65.39;97918.59;698821;28;1179;-93
2023/10/21 00:09:27;;;;;;;6.03;3.30;;;;;;;13.52;65.21;97927.22;692914;28;1965;-93
2023/10/21 00:09:50;;;;;;;4.88;3.00;;;;;;;13.46;65.44;97908.22;685230;28;1228;-93
2023/10/21 00:10:11;;;;;;;5.07;2.90;;;;;;;13.58;65.11;97931.41;694270;28;1732;-93
2023/10/21 00:10:34;;;;;;;6.10;3.20;;;;;;;13.47;65.08;97910.81;695849;28;1573;-93
2023/10/21 00:11:04;;;;;;;5.30;3.30;;;;;;;13.58;65.16;97928.78;689967;28;1123;-93
2023/10/21 00:11:25;;;;;;;5.38;3.88;;;;;;;13.55;65.27;97928.91;695642;28;1432;-93
2023/10/21 00:11:46;;;;;;;5.50;3.90;;;;;;;13.52;65.18;97918.53;690356;28;1467;-92
2023/10/21 00:12:08;;;;;;;6.25;4.00;;;;;;;13.53;65.22;97922.84;699109;28;1251;-92
2023/10/21 00:12:29;;;;;;;5.95;4.15;;;;;;;13.52;65.15;97923.78;690891;28;1691;-92
2023/10/21 00:12:52;;;;;;;6.68;4.43;;;;;;;13.47;65.25;97915.19;694960;28;1212;-93
2023/10/21 00:13:12;;;;;;;7.30;4.30;;;;;;;13.46;65.34;97921.31;696067;28;1098;-93
2023/10/21 00:13:35;;;;;;;6.28;3.78;;;;;;;13.48;65.25;97919.50;687773;28;1240;-93
2023/10/21 00:13:57;;;;;;;5.88;3.70;;;;;;;13.46;65.34;97916.09;692978;28;1635;-92
2023/10/21 00:14:18;;;;;;;5.50;3.70;;;;;;;13.40;65.33;97909.28;698539;28;1315;-93
2023/10/21 00:14:39;;;;;;;7.25;4.15;;;;;;;13.54;65.35;97940.28;689396;28;1857;-93
2023/10/21 00:15:00;;;;;;;6.40;3.93;;;;;;;13.50;65.49;97931.66;687969;28;1267;-93
2023/10/21 00:15:20;;;;;;;5.60;4.10;;;;;;;13.50;65.56;97933.41;688254;28;1293;-93
2023/10/21 00:17:48;;;;;;;6.90;4.70;;;;;;;13.43;65.42;97931.00;700756;28;682;-92
2023/10/21 00:18:12;;;;;;;5.53;4.32;;;;;;;13.49;65.58;97939.56;704514;28;1235;-93
2023/10/21 00:18:32;;;;;;;4.20;3.78;;;;;;;13.50;65.70;97943.88;695988;28;1200;-93
2023/10/21 00:18:53;;;;;;;4.22;3.80;;;;;;;13.43;65.49;97931.00;693393;28;1176;-93
2023/10/21 00:19:14;;;;;;;4.40;4.00;;;;;;;13.51;65.73;97943.00;693314;28;1436;-93
2023/10/21 00:19:35;;;;;;;4.85;3.92;;;;;;;13.51;65.66;97937.78;698802;28;1456;-93
2023/10/21 00:19:56;;;;;;;6.20;4.30;;;;;;;13.56;65.50;97946.34;693123;28;1136;-93
2023/10/21 00:20:17;;;;;;;5.90;4.20;;;;;;;13.47;65.62;97928.28;687931;28;1800;-93
2023/10/21 00:20:38;;;;;;;5.30;4.00;;;;;;;13.56;65.38;97947.19;694015;28;1544;-92
2023/10/21 00:20:59;;;;;;;3.88;3.47;;;;;;;13.54;65.62;97948.97;695744;28;1273;-92
2023/10/21 00:21:20;;;;;;;3.87;3.47;;;;;;;13.47;65.51;97936.13;695625;28;1654;-92
2023/10/21 00:21:41;;;;;;;4.68;3.80;;;;;;;13.43;65.67;97924.88;693284;28;1304;-92
2023/10/21 00:22:39;;;;;;;5.35;3.97;;;;;;;13.53;65.72;97949.88;693584;28;1222;-92
2023/10/21 00:23:00;;;;;;;6.65;3.72;;;;;;;13.42;65.58;97933.66;693283;28;1208;-93
2023/10/21 00:23:39;;;;;;;5.55;3.55;;;;;;;13.51;65.64;97943.00;693209;28;1733;-93
2023/10/21 00:23:59;;;;;;;5.30;3.80;;;;;;;13.48;65.85;97938.72;698999;28;1263;-92
2023/10/21 00:24:20;;;;;;;5.73;4.47;;;;;;;13.43;65.62;97933.63;694444;28;1211;-92
2023/10/21 00:24:41;;;;;;;5.88;4.50;;;;;;;13.42;65.57;97924.00;693385;28;1555;-93
2023/10/21 00:25:04;;;;;;;5.57;4.45;;;;;;;13.45;65.49;97932.72;692538;28;1136;-93
2023/10/21 00:25:24;;;;;;;5.97;3.80;;;;;;;13.51;65.59;97943.00;698550;28;1459;-92
2023/10/21 00:25:45;;;;;;;6.43;3.93;;;;;;;13.46;65.49;97935.25;690398;28;1527;-92
2023/10/21 00:26:07;;;;;;;7.03;4.30;;;;;;;13.56;65.54;97954.19;688689;28;1718;-92
2023/10/21 00:26:27;;;;;;;5.55;4.10;;;;;;;13.49;65.52;97934.31;699840;28;1257;-93
2023/10/21 00:26:49;;;;;;;4.60;3.88;;;;;;;13.48;65.61;97948.31;695230;28;1737;-92
2023/10/21 00:27:10;;;;;;;4.10;3.65;;;;;;;13.51;65.70;97943.00;693324;28;1336;-92
2023/10/21 00:35:37;;;;;;;5.60;4.20;;;;;;;13.46;65.38;97939.66;704172;28;1045;-92
2023/10/21 00:36:00;;;;;;;5.13;4.00;;;;;;;13.44;65.48;97942.31;696014;28;1232;-92
2023/10/21 00:36:21;;;;;;;5.20;4.25;;;;;;;13.43;65.46;97938.84;687444;28;1114;-93
2023/10/21 00:36:42;;;;;;;5.38;4.22;;;;;;;13.47;65.35;97936.13;686144;28;1276;-93
2023/10/21 00:37:03;;;;;;;6.05;4.35;;;;;;;13.52;65.36;97931.63;690274;28;1241;-92
2023/10/21 00:37:23;;;;;;;6.25;3.95;;;;;;;13.49;65.38;97944.78;690015;28;1511;-92
2023/10/21 00:37:44;;;;;;;6.07;4.00;;;;;;;13.56;65.38;97959.44;695967;28;1275;-92
2023/10/21 00:38:05;;;;;;;5.95;4.15;;;;;;;13.43;65.43;97936.22;696209;28;1089;-92
2023/10/21 00:38:26;;;;;;;4.88;3.83;;;;;;;13.44;65.45;97942.31;696257;28;1479;-93
2023/10/21 00:38:46;;;;;;;4.22;3.60;;;;;;;13.53;65.51;97957.75;701020;28;1810;-92
2023/10/21 00:39:10;;;;;;;4.07;3.35;;;;;;;13.49;65.60;97950.91;696383;28;1301;-92
2023/10/21 00:39:34;;;;;;;4.40;3.58;;;;;;;13.48;65.56;97951.81;689584;28;1184;-92
2023/10/21 00:39:55;;;;;;;4.95;3.90;;;;;;;13.45;65.77;97932.72;698826;28;1306;-92
2023/10/21 00:40:16;;;;;;;4.72;3.97;;;;;;;13.46;65.81;97945.72;695876;28;1307;-93
2023/10/21 00:40:49;;;;;;;4.43;3.90;;;;;;;13.56;65.83;97951.56;688051;28;1382;-92
2023/10/21 00:41:10;;;;;;;5.00;3.83;;;;;;;13.46;65.83;97929.19;696219;28;1406;-92
2023/10/21 00:41:31;;;;;;;5.75;4.32;;;;;;;13.52;65.54;97949.97;699837;28;1269;-92
2023/10/21 00:41:52;;;;;;;6.10;4.60;;;;;;;13.60;65.58;97958.44;687599;28;1891;-92
2023/10/21 00:42:13;;;;;;;6.10;4.60;;;;;;;13.58;65.77;97949.75;687976;28;1653;-92
2023/10/21 00:42:34;;;;;;;6.50;4.50;;;;;;;13.53;65.41;97946.44;692939;28;1176;-92
2023/10/21 00:42:55;;;;;;;5.97;4.35;;;;;;;13.52;65.55;97945.56;689871;28;1812;-93
2023/10/21 00:43:38;;;;;;;5.63;4.30;;;;;;;13.59;65.54;97948.88;691364;28;1125;-92
2023/10/21 00:43:59;;;;;;;6.90;4.25;;;;;;;13.56;65.57;97957.69;690603;28;1231;-93
2023/10/21 00:44:20;;;;;;;7.20;4.25;;;;;;;13.51;65.75;97943.00;690603;28;1303;-93
2023/10/21 00:44:43;;;;;;;6.15;4.32;;;;;;;13.58;65.58;97949.75;693318;28;1212;-92
2023/10/21 00:45:05;;;;;;;7.00;4.70;;;;;;;13.61;65.63;97960.16;688713;28;1353;-92
2023/10/21 00:45:29;;;;;;;7.28;5.03;;;;;;;13.61;65.73;97959.28;694283;28;1378;-92
2023/10/21 00:45:49;;;;;;;6.68;4.97;;;;;;;13.53;65.75;97951.69;693183;28;1207;-92
2023/10/21 00:46:20;;;;;;;6.82;4.75;;;;;;;13.45;65.83;97946.66;687653;28;1251;-92
2023/10/21 00:46:42;;;;;;;5.63;4.70;;;;;;;13.54;65.77;97966.47;695443;28;1312;-92
2023/10/21 00:47:03;;;;;;;5.40;4.80;;;;;;;13.42;66.14;97944.13;695699;28;1358;-93
2023/10/21 00:47:24;;;;;;;5.63;4.40;;;;;;;13.40;65.79;97946.78;692396;28;1791;-92
2023/10/21 00:47:45;;;;;;;5.30;4.23;;;;;;;13.48;66.09;97953.56;692937;28;1796;-93
2023/10/21 00:48:06;;;;;;;5.50;4.20;;;;;;;13.46;66.16;97953.59;687899;28;1189;-92
2023/10/21 00:48:27;;;;;;;5.03;4.13;;;;;;;13.42;66.29;97944.97;694094;28;1503;-92
2023/10/21 00:48:49;;;;;;;5.30;4.20;;;;;;;13.49;66.24;97958.75;694295;28;1294;-92
2023/10/21 00:49:12;;;;;;;4.20;3.80;;;;;;;13.40;66.14;97945.94;695700;28;1256;-93
2023/10/21 00:49:34;;;;;;;5.22;4.05;;;;;;;13.51;66.29;97956.94;695187;28;1942;-93
2023/10/21 00:49:55;;;;;;;5.47;4.03;;;;;;;13.48;66.30;97953.56;693150;28;1392;-92
2023/10/21 00:50:16;;;;;;;5.88;4.30;;;;;;;13.53;66.42;97959.53;693049;28;1207;-93
2023/10/21 00:50:37;;;;;;;5.18;4.32;;;;;;;13.55;65.94;97970.81;692743;28;1516;-92
2023/10/21 00:50:59;;;;;;;6.13;4.70;;;;;;;13.49;66.01;97955.28;698625;28;1385;-92
2023/10/21 00:51:20;;;;;;;6.40;4.65;;;;;;;13.55;66.20;97966.44;690547;28;1208;-93
2023/10/21 00:52:00;;;;;;;5.13;4.20;;;;;;;13.51;66.04;97959.56;689448;28;1621;-94
2023/10/21 00:52:21;;;;;;;4.57;3.88;;;;;;;13.45;66.30;97948.41;693261;28;1191;-93
2023/10/21 00:52:48;;;;;;;5.40;4.07;;;;;;;13.52;66.35;97949.97;692305;28;1467;-92
2023/10/21 00:53:09;;;;;;;6.40;4.50;;;;;;;13.51;66.17;97959.56;696068;28;1112;-92
2023/10/21 00:54:07;;;;;;;6.28;4.80;;;;;;;13.60;66.37;97965.44;695191;28;1216;-92
2023/10/21 00:54:35;;;;;;;7.70;4.00;;;;;;;13.57;65.97;97969.00;689787;28;1309;-93
2023/10/21 00:55:00;;;;;;;5.43;3.75;;;;;;;13.55;66.18;97957.72;689520;28;1381;-92
2023/10/21 00:55:21;;;;;;;5.47;4.00;;;;;;;13.49;66.26;97950.03;703545;28;1196;-92
2023/10/21 00:55:43;;;;;;;5.95;4.45;;;;;;;13.60;66.12;97971.56;693126;28;1122;-92
2023/10/21 00:56:22;;;;;;;7.13;4.57;;;;;;;13.61;66.11;97970.63;690326;28;1875;-92
2023/10/21 00:56:43;;;;;;;6.93;4.43;;;;;;;13.53;66.06;97949.06;693231;28;1290;-92
2023/10/21 00:57:04;;;;;;;5.30;4.20;;;;;;;13.61;66.45;97964.53;694409;28;1480;-93
2023/10/21 00:57:26;;;;;;;4.63;3.92;;;;;;;13.59;66.19;97956.75;693267;28;1317;-92
2023/10/21 00:57:50;;;;;;;4.30;3.83;;;;;;;13.62;66.01;97967.13;695961;28;1270;-92
2023/10/21 00:58:11;;;;;;;5.90;4.00;;;;;;;13.66;66.00;97967.88;692812;28;1766;-93
2023/10/21 00:58:32;;;;;;;6.45;4.10;;;;;;;13.56;66.05;97957.69;693176;28;1247;-93
2023/10/21 00:58:53;;;;;;;6.85;4.25;;;;;;;13.58;66.34;97960.22;693319;28;1177;-94
2023/10/21 00:59:14;;;;;;;5.60;4.30;;;;;;;13.62;66.31;97961.88;695809;28;1637;-94
2023/10/21 00:59:36;;;;;;;6.13;4.45;;;;;;;13.66;66.20;97967.88;700946;28;1464;-94
2023/10/21 00:59:56;;;;;;;5.55;3.95;;;;;;;13.60;66.20;97955.84;695986;28;1354;-93
2023/10/21 01:00:17;;;;;;;5.85;4.00;;;;;;;13.60;66.24;97958.44;694357;28;1733;-93
2023/10/21 01:00:39;;;;;;;5.07;4.03;;;;;;;13.60;66.35;97953.22;696086;28;1243;-93
2023/10/21 01:01:02;;;;;;;5.22;4.35;;;;;;;13.65;65.98;97953.06;690541;28;1457;-93
2023/10/21 01:01:22;;;;;;;4.65;4.15;;;;;;;13.71;66.24;97977.31;694888;28;1492;-93
2023/10/21 01:01:44;;;;;;;4.50;4.10;;;;;;;13.62;66.19;97961.88;701465;28;1156;-93
2023/10/21 01:02:05;;;;;;;5.30;3.92;;;;;;;13.65;66.18;97956.53;692860;28;1569;-93
2023/10/21 01:02:26;;;;;;;5.85;3.83;;;;;;;13.63;66.17;97953.09;696442;28;1451;-93
2023/10/21 01:02:47;;;;;;;6.87;3.90;;;;;;;13.65;66.40;97959.16;693344;28;1247;-93
2023/10/21 01:03:08;;;;;;;6.00;3.70;;;;;;;13.63;66.18;97958.34;690711;28;1332;-93
2023/10/21 01:03:30;;;;;;;5.85;3.70;;;;;;;13.70;66.19;97965.13;693461;28;1571;-93
2023/10/21 01:03:51;;;;;;;6.20;3.60;;;;;;;13.67;66.06;97946.88;695901;28;1195;-94
2023/10/21 01:04:16;;;;;;;6.22;3.92;;;;;;;13.65;66.13;97953.91;693225;28;1230;-94
2023/10/21 01:04:37;;;;;;;5.53;3.72;;;;;;;13.69;66.29;97963.41;695987;28;1613;-93
2023/10/21 01:04:58;;;;;;;4.93;4.05;;;;;;;13.70;66.29;97951.16;691364;28;1194;-94
2023/10/21 01:05:19;;;;;;;4.85;4.05;;;;;;;13.80;66.11;97967.47;693463;28;1416;-93
2023/10/21 01:05:42;;;;;;;4.97;4.22;;;;;;;13.76;66.19;97955.38;692953;28;1210;-93
2023/10/21 01:06:04;;;;;;;6.82;4.20;;;;;;;13.85;66.10;97971.66;693345;28;1219;-94
2023/10/21 01:06:26;;;;;;;7.07;4.38;;;;;;;13.79;65.88;97957.88;694127;28;1119;-93
2023/10/21 01:06:47;;;;;;;5.85;4.38;;;;;;;13.83;65.88;97967.38;693165;28;1811;-93
2023/10/21 01:07:16;;;;;;;4.95;4.13;;;;;;;13.77;65.70;97946.59;698449;28;1494;-93
2023/10/21 01:07:42;;;;;;;4.80;4.10;;;;;;;13.88;65.82;97968.09;695964;28;1257;-94
2023/10/21 01:08:03;;;;;;;5.40;4.22;;;;;;;13.81;65.92;97958.69;693159;28;1373;-93
2023/10/21 01:08:24;;;;;;;6.20;4.30;;;;;;;13.86;65.75;97956.78;698702;28;1204;-94
2023/10/21 01:08:45;;;;;;;6.40;4.30;;;;;;;13.89;65.60;97968.97;696074;28;1310;-93
2023/10/21 01:09:07;;;;;;;5.72;4.60;;;;;;;13.88;65.66;97968.09;695980;28;1329;-93
2023/10/21 01:09:30;;;;;;;7.18;4.80;;;;;;;13.88;65.70;97962.84;695555;28;1910;-94
2023/10/21 01:09:53;;;;;;;7.30;4.70;;;;;;;13.90;65.49;97966.25;690510;28;1314;-93
2023/10/21 01:10:14;;;;;;;7.20;4.55;;;;;;;13.94;65.75;97967.03;698469;28;1607;-93
2023/10/21 01:10:34;;;;;;;5.35;4.30;;;;;;;14.00;65.58;97977.34;693068;28;1325;-94
2023/10/21 01:10:55;;;;;;;5.63;4.37;;;;;;;14.02;65.66;97972.06;693147;28;1385;-93
2023/10/21 01:11:16;;;;;;;5.65;4.40;;;;;;;13.92;65.47;97956.63;698684;28;1265;-94
2023/10/21 01:11:37;;;;;;;6.78;4.55;;;;;;;14.02;65.47;97975.50;695295;28;1197;-93
2023/10/21 01:12:00;;;;;;;10.38;4.50;;;;;;;14.06;65.49;97973.66;689052;28;1529;-94
2023/10/21 01:12:21;;;;;;;9.90;4.38;;;;;;;13.93;65.58;97960.94;698606;28;1469;-94
2023/10/21 01:12:43;;;;;;;4.50;3.60;;;;;;;13.96;65.57;97970.47;696722;28;1260;-93
2023/10/21 01:13:04;;;;;;;4.00;3.60;;;;;;;13.97;65.46;97969.56;691583;28;1160;-94
2023/10/21 01:13:26;;;;;;;4.43;3.70;;;;;;;14.06;65.45;97971.03;692939;28;1514;-93
2023/10/21 01:13:48;;;;;;;4.43;4.03;;;;;;;14.01;65.12;97967.72;693913;28;1436;-94
2023/10/21 01:14:09;;;;;;;5.38;4.25;;;;;;;14.05;65.33;97975.44;696630;28;1438;-94
2023/10/21 01:14:29;;;;;;;5.13;4.23;;;;;;;13.98;65.15;97959.06;693274;28;1317;-93
2023/10/21 01:14:52;;;;;;;6.00;4.20;;;;;;;14.06;65.59;97976.28;688997;28;1152;-94
2023/10/21 01:15:13;;;;;;;5.50;4.00;;;;;;;13.96;65.25;97967.88;694349;28;1228;-94
2023/10/21 01:15:35;;;;;;;5.65;4.10;;;;;;;13.90;65.66;97970.66;696649;28;1188;-94
2023/10/21 01:15:56;;;;;;;5.75;4.30;;;;;;;13.98;65.49;97980.03;690649;28;1221;-93
2023/10/21 01:16:20;;;;;;;6.38;4.30;;;;;;;13.94;65.39;97962.66;702294;28;1069;-93
2023/10/21 01:16:41;;;;;;;6.00;4.10;;;;;;;13.97;65.47;97970.41;696953;28;1791;-93
2023/10/21 01:17:02;;;;;;;5.50;4.35;;;;;;;13.98;65.45;97966.03;688597;28;1125;-93
2023/10/21 01:17:23;;;;;;;5.57;4.55;;;;;;;14.01;65.47;97973.81;691386;28;1291;-94
2023/10/21 01:17:50;;;;;;;5.50;4.50;;;;;;;14.01;65.49;97967.72;693861;28;1689;-93
2023/10/21 01:18:12;;;;;;;5.65;4.30;;;;;;;13.98;65.45;97966.03;694296;28;1334;-93
2023/10/21 01:18:34;;;;;;;6.72;4.40;;;;;;;14.04;65.28;97967.59;689736;28;1574;-93
2023/10/21 01:18:55;;;;;;;6.60;4.18;;;;;;;14.06;65.29;97973.66;691354;28;1276;-93
2023/10/21 01:19:15;;;;;;;6.72;4.20;;;;;;;14.11;65.46;97984.91;696815;28;1281;-93
2023/10/21 01:19:36;;;;;;;6.47;4.20;;;;;;;14.07;65.46;97978.03;693964;28;1766;-93
2023/10/21 01:19:59;;;;;;;5.63;4.00;;;;;;;14.01;65.31;97965.94;687835;28;1323;-94
2023/10/21 01:20:20;;;;;;;4.97;4.13;;;;;;;14.07;65.31;97970.16;689617;28;1182;-93
2023/10/21 01:20:41;;;;;;;4.88;4.25;;;;;;;14.10;65.41;97978.78;694161;28;1168;-93
2023/10/21 01:21:03;;;;;;;5.53;4.65;;;;;;;14.08;65.18;97974.50;698615;28;1613;-93
2023/10/21 01:21:23;;;;;;;6.03;4.60;;;;;;;14.11;65.37;97977.03;691437;28;1212;-93
2023/10/21 01:21:44;;;;;;;6.25;4.70;;;;;;;14.15;65.17;97983.91;693760;28;1484;-93
2023/10/21 01:22:05;;;;;;;6.10;4.40;;;;;;;14.14;65.34;97979.59;691355;28;1165;-94
2023/10/21 01:24:29;;;;;;;8.10;4.30;;;;;;;14.12;65.37;97981.38;700712;28;1131;-93
2023/10/21 01:25:06;;;;;;;7.63;4.10;;;;;;;14.06;65.45;97985.00;696922;28;1275;-93
2023/10/21 01:25:27;;;;;;;6.65;4.10;;;;;;;14.00;65.27;97966.84;695184;28;1115;-93
2023/10/21 01:25:51;;;;;;;7.00;4.70;;;;;;;14.05;65.70;97987.69;694335;28;1212;-93
2023/10/21 01:26:12;;;;;;;6.40;4.38;;;;;;;13.95;65.60;97968.78;689214;28;1310;-93
2023/10/21 01:26:35;;;;;;;6.03;4.40;;;;;;;13.97;65.80;97973.03;692659;28;1524;-94
2023/10/21 01:26:56;;;;;;;5.38;4.13;;;;;;;13.98;65.75;97980.03;699242;28;1170;-94
2023/10/21 01:27:17;;;;;;;6.60;4.35;;;;;;;14.03;65.68;97976.38;695963;28;1780;-93
2023/10/21 01:27:40;;;;;;;7.15;4.30;;;;;;;14.01;65.73;97973.81;699190;28;1203;-93
2023/10/21 01:28:01;;;;;;;7.88;4.43;;;;;;;14.09;65.73;97986.69;691532;28;1328;-93
2023/10/21 01:28:22;;;;;;;5.72;3.90;;;;;;;14.04;65.70;97968.47;696375;28;1386;-93
2023/10/21 01:28:43;;;;;;;5.63;3.92;;;;;;;14.10;65.64;97972.66;693979;28;1156;-94
2023/10/21 01:29:09;;;;;;;5.30;3.70;;;;;;;14.05;65.56;97958.84;691701;28;1264;-93
2023/10/21 01:29:32;;;;;;;6.40;4.00;;;;;;;14.12;65.55;97965.63;702390;28;1909;-93
2023/10/21 01:29:53;;;;;;;5.07;3.60;;;;;;;14.11;65.57;97974.41;694216;28;1341;-93
2023/10/21 01:30:14;;;;;;;6.20;3.80;;;;;;;14.11;65.28;97969.16;688719;28;1199;-93
2023/10/21 01:30:35;;;;;;;5.43;3.70;;;;;;;14.11;65.44;97975.28;689563;28;1368;-94
2023/10/21 01:30:56;;;;;;;5.20;3.70;;;;;;;14.13;65.57;97983.06;696426;28;1160;-93
2023/10/21 01:31:17;;;;;;;4.43;3.80;;;;;;;14.05;65.78;97967.56;691376;28;1275;-94
2023/10/21 01:31:38;;;;;;;4.10;3.70;;;;;;;14.09;65.56;97979.66;693688;28;1642;-93
2023/10/21 01:33:36;;;;;;;5.10;3.90;;;;;;;14.15;65.74;97981.28;694252;28;1244;-93
2023/10/21 01:33:57;;;;;;;5.25;4.03;;;;;;;14.14;65.70;97984.81;697070;28;1439;-93
2023/10/21 01:34:20;;;;;;;5.70;3.95;;;;;;;14.16;65.78;97983.00;691266;28;1269;-93
2023/10/21 01:34:44;;;;;;;4.50;3.40;;;;;;;14.17;65.81;97982.09;688766;28;1420;-93
2023/10/21 01:35:06;;;;;;;5.77;3.60;;;;;;;14.07;65.82;97967.53;694466;28;1533;-93
2023/10/21 01:35:26;;;;;;;6.10;3.80;;;;;;;14.10;65.85;97967.44;698406;28;1204;-93
2023/10/21 01:35:47;;;;;;;5.38;3.60;;;;;;;14.13;65.62;97962.09;696770;28;1200;-93
2023/10/21 01:36:08;;;;;;;5.00;3.80;;;;;;;14.15;65.64;97973.44;691455;28;1241;-93
2023/10/21 01:36:29;;;;;;;4.30;3.70;;;;;;;14.19;65.50;97971.56;693757;28;1266;-93
2023/10/21 01:36:51;;;;;;;7.70;3.72;;;;;;;14.22;65.57;97974.94;693900;28;1271;-93
2023/10/21 01:37:12;;;;;;;7.60;3.50;;;;;;;14.27;65.52;97980.03;695763;28;1925;-93
2023/10/21 01:37:33;;;;;;;8.00;3.80;;;;;;;14.29;65.52;97978.22;690393;28;1379;-92
2023/10/21 01:37:54;;;;;;;4.90;3.78;;;;;;;14.27;65.31;97963.44;688698;28;1477;-94
2023/10/21 01:38:16;;;;;;;4.70;3.75;;;;;;;14.32;65.52;97977.28;691111;28;1336;-93
2023/10/21 01:38:36;;;;;;;4.43;3.40;;;;;;;14.29;65.43;97975.59;696837;28;1367;-94
2023/10/21 01:39:00;;;;;;;5.22;3.55;;;;;;;14.27;65.56;97971.31;697104;28;1299;-93
2023/10/21 01:39:21;;;;;;;6.25;3.70;;;;;;;14.18;65.66;97960.19;701012;28;1844;-93
2023/10/21 01:39:42;;;;;;;6.00;3.80;;;;;;;14.23;65.42;97979.28;696655;28;1391;-93
2023/10/21 01:40:03;;;;;;;5.15;3.25;;;;;;;14.20;65.53;97971.50;694372;28;1387;-94
2023/10/21 01:40:24;;;;;;;5.57;3.25;;;;;;;14.20;65.78;97973.28;698767;28;1858;-94
2023/10/21 01:40:45;;;;;;;5.80;3.20;;;;;;;14.22;65.59;97977.56;698882;28;1352;-94
2023/10/21 01:41:10;;;;;;;6.78;3.60;;;;;;;14.27;65.77;97987.91;694280;28;1394;-93
2023/10/21 01:41:30;;;;;;;4.55;3.40;;;;;;;14.16;65.51;97964.66;696630;28;1207;-93
2023/10/21 01:41:51;;;;;;;4.32;3.38;;;;;;;14.25;65.70;97982.69;696704;28;1456;-93
2023/10/21 01:42:12;;;;;;;5.72;3.65;;;;;;;14.20;65.77;97973.28;696960;28;1199;-93
2023/10/21 01:42:34;;;;;;;8.32;4.15;;;;;;;14.24;65.71;97985.38;699385;28;1490;-93
2023/10/21 01:42:55;;;;;;;8.00;4.20;;;;;;;14.23;65.75;97975.78;696908;28;1168;-94
2023/10/21 01:43:15;;;;;;;6.50;3.73;;;;;;;14.25;65.80;97985.31;694107;28;1441;-94
2023/10/21 01:43:36;;;;;;;4.13;3.25;;;;;;;14.20;65.78;97968.88;693659;28;1480;-93
2023/10/21 01:43:57;;;;;;;3.50;3.10;;;;;;;14.17;65.81;97963.75;694084;28;1270;-93
2023/10/21 01:44:17;;;;;;;3.45;3.00;;;;;;;14.24;65.74;97983.63;696932;28;1347;-93
2023/10/21 01:44:42;;;;;;;4.20;3.30;;;;;;;14.20;65.74;97970.66;699202;28;1266;-93
2023/10/21 01:45:04;;;;;;;4.15;3.20;;;;;;;14.29;65.82;97987.84;691435;28;1212;-93
2023/10/21 01:45:25;;;;;;;3.40;3.10;;;;;;;14.33;65.58;97989.47;694013;28;1223;-94
2023/10/21 01:45:46;;;;;;;3.33;3.03;;;;;;;14.22;65.79;97974.06;698019;28;1625;-94
2023/10/21 01:46:07;;;;;;;4.20;3.22;;;;;;;14.25;65.71;97977.47;691403;28;1255;-94
2023/10/21 01:46:27;;;;;;;4.32;3.35;;;;;;;14.23;65.68;97976.66;693154;28;1251;-93
2023/10/21 01:46:48;;;;;;;4.32;3.15;;;;;;;14.26;65.93;97988.81;698478;28;1775;-93
2023/10/21 01:47:09;;;;;;;3.92;3.20;;;;;;;14.25;65.75;97990.56;696549;28;1168;-93
2023/10/21 01:47:30;;;;;;;4.10;3.20;;;;;;;14.20;65.72;97975.91;695252;28;1228;-94
2023/10/21 01:47:51;;;;;;;4.85;3.42;;;;;;;14.24;65.95;97975.75;688609;28;1212;-93
2023/10/21 01:48:13;;;;;;;5.90;3.30;;;;;;;14.22;65.57;97976.69;693394;28;2435;-93
2023/10/21 01:48:37;;;;;;;5.97;3.25;;;;;;;14.37;65.75;98006.81;692543;28;1497;-93
2023/10/21 01:48:57;;;;;;;5.60;3.17;;;;;;;14.30;65.66;97990.44;686231;28;1211;-93
2023/10/21 01:49:19;;;;;;;7.40;3.50;;;;;;;14.25;65.72;97982.69;692572;28;1289;-93
2023/10/21 01:49:40;;;;;;;6.97;3.40;;;;;;;14.30;65.59;97986.94;699290;28;1906;-94
2023/10/21 01:50:03;;;;;;;6.10;3.30;;;;;;;14.30;65.81;97984.31;700649;28;1662;-93
2023/10/21 01:50:23;;;;;;;3.90;2.97;;;;;;;14.25;65.74;97980.09;696359;28;1504;-94
2023/10/21 01:50:44;;;;;;;4.03;3.10;;;;;;;14.28;65.92;97980.88;694156;28;1049;-93
2023/10/21 01:51:08;;;;;;;3.85;3.08;;;;;;;14.28;65.79;97984.38;696489;28;1290;-94
2023/10/21 01:51:29;;;;;;;4.03;3.03;;;;;;;14.39;65.63;97999.78;689608;28;1481;-93
2023/10/21 01:51:50;;;;;;;4.95;3.42;;;;;;;14.38;65.87;97998.06;688678;28;1119;-93
2023/10/21 01:52:11;;;;;;;5.72;3.50;;;;;;;14.29;65.87;97985.22;696262;28;1216;-93
2023/10/21 01:52:32;;;;;;;5.28;3.50;;;;;;;14.38;65.84;97998.06;692409;28;1244;-93
2023/10/21 01:52:55;;;;;;;4.65;3.40;;;;;;;14.32;65.63;97990.38;694077;28;1227;-93
2023/10/21 01:53:16;;;;;;;4.70;3.30;;;;;;;14.36;65.89;97995.47;699154;28;1894;-94
2023/10/21 01:53:37;;;;;;;5.25;3.15;;;;;;;14.30;65.61;97985.19;694478;28;1171;-94
2023/10/21 01:54:03;;;;;;;4.13;3.08;;;;;;;14.38;65.61;98003.31;691330;28;1117;-93
2023/10/21 01:54:25;;;;;;;4.03;3.20;;;;;;;14.41;65.82;98003.19;690615;28;1607;-93
2023/10/21 01:54:47;;;;;;;4.00;3.30;;;;;;;14.41;65.73;98003.19;691277;28;1203;-93
2023/10/21 01:55:08;;;;;;;4.85;3.50;;;;;;;14.32;65.74;97985.13;694280;28;1227;-94
2023/10/21 01:55:29;;;;;;;4.90;3.55;;;;;;;14.35;65.83;97992.91;696434;28;1292;-94
2023/10/21 01:56:01;;;;;;;5.63;3.63;;;;;;;14.40;65.50;97998.88;691293;28;1348;-94
2023/10/21 01:56:22;;;;;;;4.22;3.20;;;;;;;14.34;65.75;97994.69;686136;28;1225;-93
2023/10/21 01:56:45;;;;;;;4.47;3.47;;;;;;;14.38;65.68;97993.66;691121;28;1847;-93
2023/10/21 01:57:05;;;;;;;4.68;3.40;;;;;;;14.48;66.01;98002.09;694115;28;1339;-94
2023/10/21 01:57:26;;;;;;;5.13;3.35;;;;;;;14.46;65.54;98000.41;694643;28;1997;-94
2023/10/21 01:57:47;;;;;;;3.78;2.88;;;;;;;14.48;65.45;97999.47;696999;28;1256;-94
2023/10/21 01:58:08;;;;;;;3.97;3.10;;;;;;;14.52;65.43;98006.31;694230;28;1180;-93
2023/10/21 01:58:34;;;;;;;4.95;3.10;;;;;;;14.52;65.38;98001.06;699432;28;1467;-93
2023/10/21 01:58:55;;;;;;;5.45;3.33;;;;;;;14.57;65.53;98010.56;693026;28;1720;-93
2023/10/21 01:59:18;;;;;;;6.70;3.60;;;;;;;14.50;65.41;98002.91;694033;28;1328;-93
2023/10/21 01:59:40;;;;;;;6.75;3.70;;;;;;;14.50;65.30;97994.19;696459;28;1430;-94
2023/10/21 02:00:08;;;;;;;7.80;3.90;;;;;;;14.52;65.53;97993.19;696653;28;1547;-94
2023/10/21 02:00:33;;;;;;;10.73;3.88;;;;;;;14.56;65.22;98006.25;699567;28;1306;-93
2023/10/21 02:00:54;;;;;;;9.40;3.38;;;;;;;14.51;65.46;97996.72;695031;28;1360;-93
2023/10/21 02:01:14;;;;;;;6.57;2.90;;;;;;;14.66;65.31;98019.00;694001;28;1229;-94
2023/10/21 02:01:35;;;;;;;3.30;2.80;;;;;;;14.62;65.42;98011.28;688385;28;1557;-93